Terminal Aerodrome Forecast
Issued by NWS Sioux Falls, SD

Home | Current Version | Previous Version | Graphics & Text | Print | Product List | Glossary Off
Versions: 1 2 3 4 5 6 7 8 9 10 11 12 13 14 15 16 17 18 19 20 21 22 23 24 25 26 27 28 29

000
FTUS43 KFSD 161728
TAFSUX
TAF
KSUX 161728Z 1618/1718 18011KT P6SM SCT045
     FM170000 14005KT P6SM BKN040
     FM171000 15005KT 3SM BR SCT030
      TEMPO 1711/1713 2SM BR
     FM171400 VRB04KT P6SM SCT035=

USA.gov is the U.S. government's official web portal to all federal, state and local government web resources and services.